Time;durP1;ratioP1;P1;durP2;ratioP2;P2;SDS_P1;SDS_P2;PMS_P1;PMS_P2;Temp;Humidity;BMP_temperature;BMP_pressure;BME280_temperature;BME280_humidity;BME280_pressure;Samples;Min_cycle;Max_cycle;Signal;HPM_P1;HPM_P2
2021/06/28 00:04:45;;;;;;;7.45;5.13;;;;;;;20.39;65.28;101523.63;10228108;28;20073;-68
2021/06/28 00:09:42;;;;;;;6.40;5.18;;;;;;;20.34;65.77;101525.91;10238018;28;20045;-68
2021/06/28 00:14:38;;;;;;;7.93;5.60;;;;;;;20.28;66.01;101533.72;10225879;28;20046;-70
2021/06/28 00:19:35;;;;;;;7.15;5.63;;;;;;;20.20;66.07;101531.19;10234476;28;20049;-69
2021/06/28 00:24:31;;;;;;;7.30;5.75;;;;;;;20.14;66.41;101533.41;10239727;28;20139;-68
2021/06/28 00:29:27;;;;;;;8.73;6.00;;;;;;;20.08;66.74;101529.34;10228292;28;20046;-68
2021/06/28 00:34:24;;;;;;;9.55;6.28;;;;;;;20.03;66.99;101532.38;10240700;28;20498;-68
2021/06/28 00:39:20;;;;;;;6.82;5.70;;;;;;;19.95;67.31;101543.31;10240874;28;20045;-68
2021/06/28 00:44:17;;;;;;;6.75;5.88;;;;;;;19.88;67.50;101540.38;10238198;28;20038;-68
2021/06/28 00:49:14;;;;;;;8.20;6.07;;;;;;;19.85;67.76;101538.34;10247751;28;20112;-68
2021/06/28 00:54:10;;;;;;;8.38;5.75;;;;;;;19.81;67.52;101531.91;10237962;28;20538;-68
2021/06/28 00:59:07;;;;;;;7.68;5.85;;;;;;;19.78;68.12;101537.38;10241481;28;20037;-68
2021/06/28 01:09:16;;;;;;;8.05;5.20;;;;;;;19.63;68.56;101534.22;10212598;23;20053;-69
2021/06/28 01:14:13;;;;;;;8.75;5.90;;;;;;;19.59;68.65;101532.53;10191754;28;20137;-69
2021/06/28 01:19:13;;;;;;;8.82;5.72;;;;;;;19.52;68.71;101536.75;10177963;28;20454;-69
2021/06/28 01:24:11;;;;;;;8.50;6.07;;;;;;;19.48;68.74;101535.84;10178896;28;20050;-69
2021/06/28 01:29:08;;;;;;;8.50;6.63;;;;;;;19.48;69.33;101535.06;10173006;28;20042;-69
2021/06/28 01:34:04;;;;;;;8.30;6.45;;;;;;;19.41;69.09;101524.59;10189544;28;20144;-68
2021/06/28 01:39:01;;;;;;;9.13;7.18;;;;;;;19.37;69.79;101534.78;10195881;28;20133;-68
2021/06/28 01:43:57;;;;;;;8.80;6.68;;;;;;;19.33;69.45;101539.44;10191674;28;20127;-68
2021/06/28 01:48:54;;;;;;;8.90;6.72;;;;;;;19.26;69.66;101533.72;10190646;28;20058;-68
2021/06/28 01:53:50;;;;;;;9.15;6.95;;;;;;;19.21;69.82;101531.22;10195063;28;20116;-68
2021/06/28 01:58:47;;;;;;;9.20;7.93;;;;;;;19.19;70.02;101533.53;10192710;28;20129;-68
2021/06/28 02:03:43;;;;;;;9.77;7.63;;;;;;;19.12;70.02;101534.13;10190790;28;20112;-69
2021/06/28 02:08:40;;;;;;;10.32;8.38;;;;;;;19.09;70.34;101524.56;10170806;28;20082;-69
2021/06/28 02:13:38;;;;;;;11.65;7.38;;;;;;;19.02;70.07;101524.41;10197215;28;20104;-69
2021/06/28 02:18:34;;;;;;;9.95;7.72;;;;;;;18.95;70.31;101517.88;10194415;28;20038;-69
2021/06/28 02:23:36;;;;;;;11.07;7.70;;;;;;;18.89;71.02;101506.22;10189285;28;20514;-68
2021/06/28 02:28:35;;;;;;;10.63;8.07;;;;;;;18.82;70.64;101508.81;10189872;28;20128;-70
2021/06/28 02:33:33;;;;;;;12.80;8.63;;;;;;;18.75;71.11;101503.84;10192093;28;20100;-69
2021/06/28 02:38:29;;;;;;;10.52;8.40;;;;;;;18.69;71.39;101503.31;10194442;28;20092;-69
2021/06/28 02:43:26;;;;;;;10.20;8.25;;;;;;;18.62;71.32;101505.88;10191184;28;20133;-69
2021/06/28 02:48:23;;;;;;;10.48;8.25;;;;;;;18.58;71.71;101495.88;10189848;28;20453;-69
2021/06/28 02:53:20;;;;;;;11.07;8.65;;;;;;;18.50;71.72;101497.66;10192797;28;20846;-68
2021/06/28 02:58:18;;;;;;;11.88;8.82;;;;;;;18.47;72.06;101492.78;10179205;28;20125;-68
2021/06/28 03:03:15;;;;;;;11.45;8.93;;;;;;;18.45;71.84;101489.56;10188984;28;20115;-68
2021/06/28 03:08:16;;;;;;;10.95;8.77;;;;;;;18.43;72.00;101487.16;10188737;28;20490;-69
2021/06/28 03:13:15;;;;;;;12.55;9.05;;;;;;;18.42;71.68;101490.28;10179678;28;20045;-69
2021/06/28 03:18:12;;;;;;;11.32;8.68;;;;;;;18.39;72.02;101493.75;10189154;28;20050;-69
2021/06/28 03:23:09;;;;;;;11.63;8.20;;;;;;;18.40;72.02;101498.13;10187072;28;20128;-68
2021/06/28 03:28:06;;;;;;;12.15;7.72;;;;;;;18.40;71.95;101506.44;10188504;28;20050;-68
2021/06/28 03:33:03;;;;;;;10.20;8.27;;;;;;;18.37;72.04;101496.88;10188997;28;20683;-69
2021/06/28 03:38:00;;;;;;;10.02;8.45;;;;;;;18.34;72.29;101507.88;10186498;28;20538;-68
2021/06/28 03:42:57;;;;;;;10.32;8.45;;;;;;;18.34;72.15;101522.50;10185881;28;20104;-69
2021/06/28 03:47:53;;;;;;;9.80;8.23;;;;;;;18.34;72.56;101510.63;10178449;28;20034;-69
2021/06/28 03:52:50;;;;;;;12.68;9.00;;;;;;;18.33;72.67;101518.09;10189907;28;20054;-70
2021/06/28 03:57:47;;;;;;;10.25;7.72;;;;;;;18.34;72.55;101505.09;10188199;28;20124;-68
2021/06/28 04:02:44;;;;;;;10.05;8.25;;;;;;;18.33;72.95;101509.00;10187706;28;20108;-69
2021/06/28 04:07:42;;;;;;;11.60;7.95;;;;;;;18.34;73.37;101502.31;10185001;28;20050;-69
2021/06/28 04:12:46;;;;;;;12.85;8.27;;;;;;;18.34;73.57;101505.09;10194585;28;20148;-70
2021/06/28 04:17:49;;;;;;;11.63;8.30;;;;;;;18.31;73.45;101501.06;10190267;28;20045;-69
2021/06/28 04:22:47;;;;;;;11.00;7.95;;;;;;;18.36;73.75;101508.31;10173341;28;20501;-70
2021/06/28 04:27:45;;;;;;;11.82;9.07;;;;;;;18.37;73.94;101507.94;10190909;28;20472;-69
2021/06/28 04:32:42;;;;;;;13.15;8.98;;;;;;;18.42;73.85;101504.13;10194431;28;20128;-68
2021/06/28 04:37:40;;;;;;;13.55;8.73;;;;;;;18.47;73.55;101492.78;10195446;28;20037;-70
2021/06/28 04:42:37;;;;;;;11.65;8.07;;;;;;;18.48;73.52;101497.19;10199170;28;20414;-68
2021/06/28 04:47:34;;;;;;;12.55;8.18;;;;;;;18.51;72.02;101493.72;10193347;28;20434;-69
2021/06/28 04:52:32;;;;;;;12.35;8.43;;;;;;;18.62;72.20;101483.72;10193073;28;20046;-69
2021/06/28 04:57:28;;;;;;;10.20;8.05;;;;;;;18.68;73.38;101482.31;10192799;28;20133;-69
2021/06/28 05:02:25;;;;;;;9.82;7.63;;;;;;;18.70;71.50;101485.56;10191556;28;20096;-68
2021/06/28 05:07:21;;;;;;;11.10;8.10;;;;;;;18.76;72.08;101488.84;10190628;28;20069;-68
2021/06/28 05:12:18;;;;;;;12.30;7.97;;;;;;;18.77;70.86;101489.69;10192174;28;20651;-66
2021/06/28 05:17:14;;;;;;;10.52;6.57;;;;;;;18.88;71.75;101501.84;10193429;28;20124;-67
2021/06/28 05:22:11;;;;;;;10.70;7.60;;;;;;;18.93;72.37;101496.84;10176972;28;20046;-67
2021/06/28 05:27:09;;;;;;;10.40;7.47;;;;;;;18.97;71.87;101487.84;10179475;28;20076;-68
2021/06/28 05:32:05;;;;;;;10.13;7.18;;;;;;;19.01;73.49;101486.78;10194257;28;20689;-66
2021/06/28 05:37:02;;;;;;;10.40;6.35;;;;;;;19.07;73.13;101488.09;10187889;28;20104;-68
2021/06/28 05:41:59;;;;;;;10.45;7.68;;;;;;;19.14;72.96;101477.19;10190549;28;20088;-69
2021/06/28 05:46:55;;;;;;;10.02;6.80;;;;;;;19.25;73.69;101487.75;10171907;28;20076;-68
2021/06/28 05:51:52;;;;;;;11.32;6.88;;;;;;;19.35;73.61;101492.75;10191056;28;20046;-68
2021/06/28 05:56:48;;;;;;;9.23;7.05;;;;;;;19.46;73.22;101482.72;10188634;28;20052;-69
2021/06/28 06:01:45;;;;;;;10.52;6.80;;;;;;;19.50;73.07;101483.59;10189743;28;20042;-70
2021/06/28 06:06:42;;;;;;;10.30;6.97;;;;;;;19.59;73.26;101479.81;10169486;28;20092;-72
2021/06/28 06:11:38;;;;;;;12.02;6.80;;;;;;;19.65;72.78;101483.94;10190214;28;20129;-70
2021/06/28 06:16:35;;;;;;;7.95;5.85;;;;;;;19.76;72.61;101487.78;10186183;28;20050;-69
2021/06/28 06:21:32;;;;;;;10.00;7.07;;;;;;;19.82;71.94;101486.34;10172967;28;20046;-74
2021/06/28 06:26:28;;;;;;;9.73;6.20;;;;;;;19.92;70.80;101491.31;10189284;28;20046;-72
2021/06/28 06:31:25;;;;;;;11.77;6.80;;;;;;;20.04;69.43;101500.69;10190775;28;20566;-68
2021/06/28 06:36:22;;;;;;;8.70;5.80;;;;;;;20.13;70.41;101498.50;10188358;28;20053;-72
2021/06/28 06:41:18;;;;;;;12.02;6.35;;;;;;;20.24;69.79;101499.53;10190028;28;20061;-69
2021/06/28 06:46:15;;;;;;;8.88;5.88;;;;;;;20.32;68.47;101500.47;10187822;28;20132;-68
2021/06/28 06:51:11;;;;;;;12.93;5.93;;;;;;;20.45;69.06;101498.38;10190521;28;20137;-68
2021/06/28 06:56:08;;;;;;;8.65;5.80;;;;;;;20.60;68.53;101501.06;10187780;28;20045;-68
2021/06/28 07:01:09;;;;;;;10.88;5.47;;;;;;;20.75;67.65;101502.16;10188480;28;20050;-73
2021/06/28 07:06:05;;;;;;;7.05;5.45;;;;;;;20.95;66.99;101502.09;10183371;28;20049;-69
2021/06/28 07:11:04;;;;;;;12.00;5.78;;;;;;;21.15;66.29;101498.09;10190924;28;20069;-71
2021/06/28 07:16:01;;;;;;;8.02;5.45;;;;;;;21.32;66.21;101502.34;10188857;28;20152;-70
2021/06/28 07:20:57;;;;;;;8.13;5.10;;;;;;;21.53;63.42;101496.34;10186779;28;20522;-72
2021/06/28 07:25:54;;;;;;;9.25;4.95;;;;;;;21.69;63.47;101498.16;10168529;28;20145;-69
2021/06/28 07:30:52;;;;;;;8.65;5.22;;;;;;;21.82;63.79;101502.34;10189192;28;20120;-73
2021/06/28 07:35:48;;;;;;;6.75;4.72;;;;;;;21.96;63.33;101508.09;10186650;28;20065;-69
2021/06/28 07:40:44;;;;;;;7.72;4.55;;;;;;;22.12;61.58;101505.13;10179825;28;20432;-70
2021/06/28 07:45:41;;;;;;;7.25;4.88;;;;;;;22.30;62.15;101505.38;10187890;28;20510;-68
2021/06/28 07:50:38;;;;;;;7.60;4.25;;;;;;;22.47;60.87;101502.00;10187733;28;20498;-68
2021/06/28 07:55:36;;;;;;;10.02;4.22;;;;;;;22.60;58.51;101501.75;10187093;28;20500;-69
2021/06/28 08:00:33;;;;;;;5.30;4.10;;;;;;;22.60;58.71;101502.53;10183015;28;20460;-69
2021/06/28 08:05:30;;;;;;;7.05;4.43;;;;;;;22.62;58.40;101493.81;10186393;28;20052;-69
2021/06/28 08:10:27;;;;;;;5.20;4.20;;;;;;;22.68;58.91;101492.28;10186742;28;20523;-71
2021/06/28 08:15:24;;;;;;;8.00;4.00;;;;;;;22.80;57.55;101475.28;10187463;28;20050;-69
2021/06/28 08:20:21;;;;;;;6.47;3.80;;;;;;;22.93;56.22;101470.22;10186805;28;20104;-69
2021/06/28 08:25:19;;;;;;;6.00;4.07;;;;;;;23.06;57.84;101473.53;10182740;28;20081;-68
2021/06/28 08:30:16;;;;;;;6.47;3.90;;;;;;;23.23;54.59;101477.66;10191347;28;20093;-67
2021/06/28 08:35:12;;;;;;;5.25;3.58;;;;;;;23.41;53.83;101461.06;10193175;28;20112;-67
2021/06/28 08:40:10;;;;;;;5.00;3.30;;;;;;;23.56;51.47;101451.59;10172996;28;20046;-70
2021/06/28 08:45:07;;;;;;;5.03;3.55;;;;;;;23.76;51.75;101454.13;10186315;28;20046;-68
2021/06/28 08:50:05;;;;;;;7.18;3.40;;;;;;;23.94;48.07;101464.19;10188400;28;20080;-72
2021/06/28 08:55:03;;;;;;;6.53;3.00;;;;;;;24.15;47.83;101454.31;10184685;28;20104;-68
2021/06/28 08:59:59;;;;;;;7.40;3.63;;;;;;;24.30;48.21;101458.75;10189023;28;20042;-67
2021/06/28 09:05:04;;;;;;;5.45;3.42;;;;;;;24.52;49.26;101451.25;10189832;28;20128;-66
2021/06/28 09:10:03;;;;;;;4.88;3.13;;;;;;;24.70;47.83;101442.09;10192470;28;20115;-71
2021/06/28 09:15:00;;;;;;;5.88;3.20;;;;;;;24.81;46.02;101439.28;10191115;28;20096;-67
2021/06/28 09:20:18;;;;;;;7.50;3.40;;;;;;;24.97;48.37;101437.72;10190811;28;20050;-67
2021/06/28 09:25:30;;;;;;;4.88;3.20;;;;;;;25.18;47.27;101441.72;10189304;28;20080;-69
2021/06/28 09:30:27;;;;;;;5.00;3.00;;;;;;;25.44;46.64;101442.50;10173203;28;20136;-69
2021/06/28 09:35:36;;;;;;;5.47;3.50;;;;;;;25.48;45.94;101444.06;10187353;28;20404;-68
2021/06/28 09:40:37;;;;;;;4.13;2.88;;;;;;;25.60;44.55;101440.06;10193199;28;20039;-69
2021/06/28 09:45:40;;;;;;;6.40;3.10;;;;;;;25.87;46.24;101436.78;10193592;28;20049;-71
2021/06/28 09:50:37;;;;;;;6.60;3.55;;;;;;;26.07;45.61;101445.53;10195700;28;21218;-71
2021/06/28 09:55:35;;;;;;;6.20;3.17;;;;;;;26.28;43.94;101451.03;10194019;28;20132;-69
2021/06/28 10:00:54;;;;;;;3.78;2.45;;;;;;;26.53;43.88;101439.66;10191083;28;20045;-68
2021/06/28 10:06:02;;;;;;;4.43;3.20;;;;;;;26.71;44.03;101435.94;10186478;28;20042;-68
2021/06/28 10:11:10;;;;;;;5.03;3.00;;;;;;;27.05;42.85;101431.25;10193056;28;20069;-69
2021/06/28 10:16:08;;;;;;;6.25;3.20;;;;;;;27.42;41.28;101420.50;10193627;28;20076;-68
2021/06/28 10:21:08;;;;;;;5.28;2.75;;;;;;;28.76;41.29;101431.66;10191560;28;20045;-67
2021/06/28 10:26:06;;;;;;;5.28;2.30;;;;;;;29.84;33.85;101414.38;10191475;28;20042;-67
2021/06/28 10:31:04;;;;;;;5.88;2.60;;;;;;;30.45;37.87;101409.44;10176640;28;20470;-68
2021/06/28 10:36:13;;;;;;;3.67;2.47;;;;;;;31.41;36.95;101414.72;10197462;28;20482;-69
2021/06/28 10:41:10;;;;;;;7.30;2.70;;;;;;;32.33;33.94;101393.41;10184462;28;20065;-66
2021/06/28 10:46:09;;;;;;;3.78;2.38;;;;;;;33.02;31.08;101409.72;10186076;28;20045;-69
2021/06/28 10:51:08;;;;;;;5.38;2.67;;;;;;;33.85;28.62;101415.31;10188848;28;20048;-70
2021/06/28 10:56:27;;;;;;;4.10;2.60;;;;;;;33.94;26.57;101415.34;10185264;28;20397;-69
2021/06/28 11:01:37;;;;;;;4.03;2.50;;;;;;;34.09;26.81;101407.91;10190459;28;20462;-68
2021/06/28 11:06:34;;;;;;;3.50;2.10;;;;;;;34.21;28.39;101409.06;10184224;28;20046;-72
2021/06/28 11:11:46;;;;;;;5.43;2.53;;;;;;;34.45;25.83;101414.97;10188758;28;20609;-68
2021/06/28 11:16:54;;;;;;;5.07;2.20;;;;;;;33.05;26.27;101402.38;10178271;28;20153;-68
2021/06/28 11:21:50;;;;;;;4.80;2.25;;;;;;;33.02;25.92;101397.63;10187396;28;20091;-68
2021/06/28 11:26:47;;;;;;;3.38;2.53;;;;;;;33.06;25.33;101398.31;10182079;28;20164;-70
2021/06/28 11:31:43;;;;;;;4.50;2.67;;;;;;;33.40;27.77;101399.53;10187473;28;20046;-69
2021/06/28 11:36:40;;;;;;;3.38;2.13;;;;;;;32.19;27.80;101394.66;10185089;28;20050;-68
2021/06/28 11:41:37;;;;;;;3.15;2.10;;;;;;;31.29;27.09;101401.31;10187182;28;20622;-68
2021/06/28 11:46:33;;;;;;;5.28;2.67;;;;;;;30.89;27.99;101390.25;10185753;28;20430;-68
2021/06/28 11:51:38;;;;;;;3.60;2.40;;;;;;;30.93;30.79;101390.94;10183072;28;20047;-68
2021/06/28 11:56:41;;;;;;;3.92;2.67;;;;;;;30.50;28.79;101392.00;10185500;28;20046;-69
2021/06/28 12:01:40;;;;;;;6.00;2.72;;;;;;;30.94;30.97;101392.56;10186454;28;20103;-70
2021/06/28 12:06:38;;;;;;;3.70;2.25;;;;;;;30.92;29.12;101395.03;10165342;28;20053;-71
2021/06/28 12:11:37;;;;;;;5.35;2.65;;;;;;;31.04;29.51;101380.16;10190420;28;20451;-68
2021/06/28 12:16:33;;;;;;;4.47;2.88;;;;;;;32.06;28.99;101379.72;10182395;28;20155;-68
2021/06/28 12:21:32;;;;;;;4.35;2.40;;;;;;;32.75;27.43;101379.13;10168783;28;20084;-69
2021/06/28 12:26:29;;;;;;;5.07;2.22;;;;;;;33.63;26.99;101379.25;10181049;28;20069;-68
2021/06/28 12:31:25;;;;;;;5.03;2.60;;;;;;;33.46;30.15;101370.13;10184435;28;20148;-71
2021/06/28 12:36:22;;;;;;;4.05;2.60;;;;;;;32.54;27.93;101368.50;10192805;28;20129;-70
2021/06/28 12:41:22;;;;;;;9.38;2.67;;;;;;;32.25;34.40;101369.41;10193500;28;20108;-71
2021/06/28 12:46:20;;;;;;;6.40;2.70;;;;;;;31.87;34.42;101353.22;10197178;28;20104;-68
2021/06/28 12:51:20;;;;;;;3.88;2.72;;;;;;;31.34;31.01;101364.81;10198488;28;20052;-69
2021/06/28 12:56:20;;;;;;;4.25;2.83;;;;;;;30.75;31.97;101357.50;10192397;28;20077;-68
2021/06/28 13:01:38;;;;;;;5.30;2.95;;;;;;;30.54;36.52;101353.19;10188218;28;20041;-68
2021/06/28 13:06:35;;;;;;;5.18;2.88;;;;;;;30.72;37.44;101341.47;10188481;28;20088;-71
2021/06/28 13:11:44;;;;;;;4.00;2.65;;;;;;;30.79;35.24;101335.63;10192780;28;20058;-69
2021/06/28 13:21:41;;;;;;;3.38;2.25;;;;;;;30.73;34.13;101338.22;10191045;28;20100;-69
2021/06/28 13:26:39;;;;;;;4.95;2.40;;;;;;;30.71;32.95;101335.03;10192820;28;20092;-68
2021/06/28 13:32:02;;;;;;;4.07;2.55;;;;;;;30.41;29.69;101317.25;10189109;28;20467;-69
2021/06/28 13:37:02;;;;;;;6.15;2.47;;;;;;;30.47;32.99;101319.53;10189423;28;20050;-68
2021/06/28 13:41:59;;;;;;;5.28;2.38;;;;;;;30.57;34.25;101312.84;10189092;28;20443;-69
2021/06/28 13:46:55;;;;;;;4.57;2.15;;;;;;;30.50;33.25;101313.00;10188058;28;20474;-68
2021/06/28 13:51:59;;;;;;;4.72;2.25;;;;;;;30.37;37.99;101310.88;10190055;28;20526;-71
2021/06/28 13:56:55;;;;;;;5.45;2.60;;;;;;;30.37;30.71;101305.25;10188136;28;20076;-69
2021/06/28 14:01:52;;;;;;;4.50;2.70;;;;;;;30.23;31.45;101299.94;10186415;28;20085;-71
2021/06/28 14:06:48;;;;;;;4.20;2.70;;;;;;;30.25;32.97;101297.47;10193293;28;20042;-68
2021/06/28 14:11:45;;;;;;;3.50;2.38;;;;;;;29.95;33.61;101293.75;10192209;28;20056;-72
2021/06/28 14:16:42;;;;;;;4.07;2.55;;;;;;;30.00;30.88;101293.22;10188945;28;20053;-72
2021/06/28 14:21:39;;;;;;;3.70;2.67;;;;;;;30.30;30.41;101282.88;10192395;28;20516;-67
2021/06/28 14:26:36;;;;;;;3.85;2.60;;;;;;;30.96;33.20;101285.59;10191100;28;20096;-68
2021/06/28 14:31:35;;;;;;;4.03;2.28;;;;;;;31.59;32.05;101282.16;10189554;28;20078;-68
2021/06/28 14:36:31;;;;;;;4.10;2.70;;;;;;;31.42;28.48;101266.53;10186000;28;20053;-68
2021/06/28 14:41:28;;;;;;;3.72;2.78;;;;;;;31.31;31.90;101263.22;10172223;28;20065;-67
2021/06/28 14:46:24;;;;;;;5.85;2.67;;;;;;;31.11;30.21;101264.19;10189158;28;20049;-72
2021/06/28 14:51:21;;;;;;;3.85;2.22;;;;;;;31.08;29.82;101267.13;10189068;28;20103;-69
2021/06/28 14:56:17;;;;;;;3.65;2.67;;;;;;;31.32;34.16;101253.50;10189547;28;20128;-67
2021/06/28 15:01:14;;;;;;;5.05;2.75;;;;;;;31.29;32.04;101254.41;10185264;28;20462;-68
2021/06/28 15:06:11;;;;;;;4.53;2.60;;;;;;;31.24;30.75;101242.44;10176670;28;20045;-70
2021/06/28 15:11:08;;;;;;;4.50;2.80;;;;;;;31.20;29.84;101236.09;10187983;28;20049;-68
2021/06/28 15:16:07;;;;;;;4.10;2.70;;;;;;;31.09;32.29;101234.81;10187381;28;20046;-67
2021/06/28 15:21:04;;;;;;;5.32;2.53;;;;;;;31.11;35.43;101226.69;10164928;28;20570;-71
2021/06/28 15:26:01;;;;;;;4.53;2.63;;;;;;;31.09;35.35;101218.66;10182825;28;20133;-68
2021/06/28 15:30:59;;;;;;;3.40;2.30;;;;;;;31.13;37.16;101213.69;10185828;28;20078;-70
2021/06/28 15:35:55;;;;;;;3.78;2.42;;;;;;;31.34;35.16;101205.81;10185544;28;20112;-67
2021/06/28 15:40:52;;;;;;;5.88;2.58;;;;;;;31.57;33.74;101202.69;10186516;28;20042;-68
2021/06/28 15:45:49;;;;;;;4.72;2.85;;;;;;;31.60;33.60;101198.19;10186715;28;20038;-67
2021/06/28 15:50:46;;;;;;;5.05;2.80;;;;;;;31.74;31.42;101196.91;10167267;28;20045;-67
2021/06/28 15:55:43;;;;;;;5.85;2.95;;;;;;;32.01;35.17;101196.47;10181577;28;20134;-73
2021/06/28 16:00:40;;;;;;;7.43;3.03;;;;;;;31.81;33.83;101188.22;10182961;28;20096;-68
2021/06/28 16:05:37;;;;;;;5.07;2.90;;;;;;;32.14;32.14;101193.59;10190392;28;20045;-68
2021/06/28 16:10:33;;;;;;;6.55;3.13;;;;;;;32.61;28.55;101187.09;10194159;28;20054;-70
2021/06/28 16:15:30;;;;;;;5.00;3.15;;;;;;;33.15;30.09;101180.25;10192263;28;20067;-67
2021/06/28 16:20:26;;;;;;;4.78;3.15;;;;;;;33.74;29.95;101175.47;10191940;28;20141;-67
2021/06/28 16:25:23;;;;;;;5.93;3.63;;;;;;;33.92;30.00;101162.59;10193116;28;20092;-71
2021/06/28 16:30:20;;;;;;;5.18;3.15;;;;;;;34.04;29.00;101170.16;10193536;28;20487;-67
2021/06/28 16:35:16;;;;;;;5.95;2.88;;;;;;;33.74;30.42;101164.13;10191654;28;20100;-67
2021/06/28 16:40:14;;;;;;;5.47;2.95;;;;;;;33.40;28.94;101164.28;10187248;28;20042;-69
2021/06/28 16:45:11;;;;;;;14.57;3.53;;;;;;;33.29;28.90;101159.06;10194774;28;20046;-70
2021/06/28 16:50:08;;;;;;;9.60;3.25;;;;;;;32.59;29.37;101164.16;10192326;28;20472;-68
2021/06/28 16:55:07;;;;;;;5.22;3.05;;;;;;;32.37;32.64;101155.59;10190997;28;20041;-67
2021/06/28 17:00:06;;;;;;;7.18;2.80;;;;;;;31.87;34.49;101152.47;10193119;28;20077;-69
2021/06/28 17:05:03;;;;;;;4.20;2.60;;;;;;;31.23;38.56;101144.78;10189508;28;20054;-67
2021/06/28 17:10:20;;;;;;;8.55;3.65;;;;;;;30.61;41.38;101144.19;10190177;28;20434;-68
2021/06/28 17:15:17;;;;;;;4.63;2.67;;;;;;;30.08;42.68;101143.59;10192605;28;20050;-69
2021/06/28 17:20:14;;;;;;;5.00;3.50;;;;;;;29.81;44.19;101150.34;10173440;28;20113;-74
2021/06/28 17:25:10;;;;;;;11.38;6.18;;;;;;;29.48;44.15;101144.66;10188906;28;20056;-67
2021/06/28 17:30:08;;;;;;;11.48;5.60;;;;;;;29.11;44.20;101155.16;10168951;28;20096;-67
2021/06/28 17:35:05;;;;;;;8.30;3.53;;;;;;;28.98;45.11;101161.88;10186733;28;20053;-71
2021/06/28 17:40:05;;;;;;;6.82;3.80;;;;;;;28.76;43.52;101176.38;10171931;28;20444;-68
2021/06/28 17:45:02;;;;;;;6.43;3.90;;;;;;;28.56;42.89;101214.97;10195153;28;20096;-72
2021/06/28 17:49:59;;;;;;;7.80;4.43;;;;;;;27.98;46.89;101243.22;10194168;28;20100;-69
2021/06/28 17:54:55;;;;;;;9.30;5.93;;;;;;;27.10;51.76;101249.59;10189381;28;20045;-67
2021/06/28 17:59:52;;;;;;;13.65;6.72;;;;;;;26.40;55.11;101236.69;10184901;28;20038;-66
2021/06/28 18:04:48;;;;;;;12.40;7.78;;;;;;;25.94;59.06;101212.66;10184787;28;20130;-67
2021/06/28 18:09:45;;;;;;;8.55;6.10;;;;;;;25.51;60.76;101201.72;10186743;28;20049;-68
2021/06/28 18:14:43;;;;;;;11.35;7.10;;;;;;;25.24;61.23;101179.88;10184739;28;20104;-67
2021/06/28 18:19:39;;;;;;;8.20;6.40;;;;;;;25.08;59.94;101168.34;10184890;28;20064;-67
2021/06/28 18:24:36;;;;;;;10.10;6.35;;;;;;;24.93;61.78;101157.22;10192238;28;20065;-67
2021/06/28 18:29:32;;;;;;;10.27;6.38;;;;;;;24.93;62.92;101151.63;10194042;28;20049;-70
2021/06/28 18:34:30;;;;;;;7.30;5.80;;;;;;;24.89;62.11;101156.44;10184569;28;20056;-67
2021/06/28 18:39:26;;;;;;;12.52;5.72;;;;;;;24.91;63.39;101159.63;10179143;28;20101;-67
2021/06/28 18:44:23;;;;;;;6.82;5.47;;;;;;;24.87;64.24;101169.22;10185676;28;20132;-68
2021/06/28 18:49:20;;;;;;;8.85;5.22;;;;;;;24.80;64.38;101163.66;10187071;28;20077;-67
2021/06/28 18:54:19;;;;;;;10.90;6.38;;;;;;;24.73;65.81;101154.09;10181770;28;20046;-68
2021/06/28 19:04:12;;;;;;;8.52;5.82;;;;;;;24.52;66.23;101149.34;10188689;28;20103;-68
2021/06/28 19:09:09;;;;;;;10.35;6.75;;;;;;;24.35;64.97;101155.78;10189487;28;20128;-69
2021/06/28 19:14:10;;;;;;;8.68;6.68;;;;;;;24.24;65.13;101157.78;10184047;28;20504;-68
2021/06/28 19:19:11;;;;;;;11.32;5.93;;;;;;;24.19;63.43;101153.41;10188878;28;20112;-67
2021/06/28 19:24:09;;;;;;;7.78;6.00;;;;;;;24.17;66.34;101155.00;10181188;28;20053;-70
2021/06/28 19:29:06;;;;;;;7.20;6.13;;;;;;;24.11;66.11;101154.59;10179129;28;20100;-68
2021/06/28 19:34:03;;;;;;;7.50;5.35;;;;;;;24.05;65.21;101154.19;10185611;28;20077;-70
2021/06/28 19:39:05;;;;;;;7.38;5.65;;;;;;;23.94;65.31;101153.41;10183381;28;20081;-74
2021/06/28 19:50:07;;;;;;;8.00;5.65;;;;;;;23.79;66.75;101174.13;10466023;23;20046;-70
2021/06/28 19:55:22;;;;;;;8.05;5.80;;;;;;;23.76;66.83;101183.31;10127344;28;20703;-69
2021/06/28 20:01:06;;;;;;;8.90;5.85;;;;;;;23.68;65.53;101196.44;10123072;28;20201;-69
2021/06/28 20:06:12;;;;;;;7.05;4.82;;;;;;;23.64;65.58;101199.22;10118675;28;20042;-69
2021/06/28 20:12:01;;;;;;;9.10;6.47;;;;;;;23.57;65.33;101195.63;10143677;28;20125;-69
2021/06/28 20:16:57;;;;;;;10.98;6.22;;;;;;;23.46;64.59;101198.38;10136882;28;20070;-69
2021/06/28 20:21:54;;;;;;;6.53;5.40;;;;;;;23.40;65.08;101197.19;10132449;28;20051;-70
2021/06/28 20:26:51;;;;;;;6.65;5.05;;;;;;;23.37;66.12;101195.16;10128243;28;20405;-67
2021/06/28 20:31:47;;;;;;;6.53;5.47;;;;;;;23.29;65.88;101208.28;10144137;28;20054;-68
2021/06/28 20:36:44;;;;;;;6.05;5.00;;;;;;;23.25;65.40;101213.84;10143079;28;20054;-68
2021/06/28 20:41:40;;;;;;;7.30;5.00;;;;;;;23.10;64.43;101203.84;10139513;28;20132;-68
2021/06/28 20:46:37;;;;;;;7.93;5.25;;;;;;;23.04;65.67;101208.97;10141556;28;20483;-69
2021/06/28 20:51:34;;;;;;;6.15;5.30;;;;;;;22.99;65.47;101203.00;10153524;28;20117;-69
2021/06/28 20:56:33;;;;;;;6.78;5.20;;;;;;;22.98;65.91;101215.31;10145733;28;20078;-68
2021/06/28 21:01:39;;;;;;;8.65;5.28;;;;;;;22.93;66.50;101210.09;10131587;28;20050;-68
2021/06/28 21:06:40;;;;;;;8.90;5.95;;;;;;;22.85;66.50;101212.06;10129507;28;20061;-68
2021/06/28 21:11:48;;;;;;;7.72;5.80;;;;;;;22.83;66.47;101212.44;10135781;28;20057;-69
2021/06/28 21:17:24;;;;;;;6.40;5.18;;;;;;;22.80;66.22;101204.88;10115448;28;20401;-69
2021/06/28 21:22:21;;;;;;;7.18;5.28;;;;;;;22.79;66.28;101208.84;10150207;28;20638;-67
2021/06/28 21:27:17;;;;;;;9.10;6.07;;;;;;;22.75;66.41;101210.81;10150045;28;20445;-67
2021/06/28 21:32:14;;;;;;;8.65;5.57;;;;;;;22.74;67.25;101216.78;10145810;28;20131;-68
2021/06/28 21:37:10;;;;;;;7.47;5.32;;;;;;;22.68;67.27;101214.34;10147617;28;20073;-68
2021/06/28 21:42:07;;;;;;;8.75;6.05;;;;;;;22.60;67.53;101217.47;10150832;28;20066;-68
2021/06/28 21:47:04;;;;;;;7.03;5.45;;;;;;;22.54;67.62;101213.47;10146959;28;20046;-68
2021/06/28 21:52:01;;;;;;;7.10;5.40;;;;;;;22.51;67.82;101203.09;10133898;28;20497;-68
2021/06/28 21:56:57;;;;;;;7.35;5.28;;;;;;;22.45;67.79;101206.25;10149261;28;20076;-68
2021/06/28 22:01:54;;;;;;;7.78;5.55;;;;;;;22.40;67.93;101203.81;10132359;28;20128;-68
2021/06/28 22:06:52;;;;;;;7.53;5.50;;;;;;;22.35;68.30;101195.84;10148937;28;20100;-69
2021/06/28 22:11:49;;;;;;;9.20;5.85;;;;;;;22.29;68.07;101191.81;10144349;28;20042;-68
2021/06/28 22:16:45;;;;;;;7.93;5.25;;;;;;;22.19;67.99;101181.38;10152466;28;20046;-69
2021/06/28 22:21:43;;;;;;;8.57;6.18;;;;;;;22.12;67.76;101187.69;10137583;28;20066;-68
2021/06/28 22:26:41;;;;;;;9.98;5.80;;;;;;;22.03;68.05;101179.63;10146251;28;20049;-68
2021/06/28 22:31:38;;;;;;;9.30;5.47;;;;;;;21.98;68.45;101188.34;10140717;28;20461;-68
2021/06/28 22:36:34;;;;;;;7.38;5.80;;;;;;;21.95;68.17;101180.75;10138573;28;21867;-68
2021/06/28 22:41:31;;;;;;;9.15;5.75;;;;;;;21.88;67.97;101172.34;10148171;28;20527;-68
2021/06/28 22:47:16;;;;;;;11.85;5.72;;;;;;;21.82;67.90;101165.53;10136470;28;20133;-69
2021/06/28 22:52:20;;;;;;;7.22;6.00;;;;;;;21.76;68.15;101164.28;10132178;28;20116;-68
2021/06/28 22:57:17;;;;;;;9.88;6.43;;;;;;;21.70;68.53;101154.69;10131820;28;20081;-68
2021/06/28 23:02:14;;;;;;;7.50;5.93;;;;;;;21.64;68.49;101157.81;10143659;28;20043;-70
2021/06/28 23:07:11;;;;;;;7.32;5.90;;;;;;;21.62;68.97;101148.25;10131438;28;20074;-68
2021/06/28 23:12:08;;;;;;;7.22;5.57;;;;;;;21.57;69.33;101156.97;10142544;28;20148;-69